Time;durP1;ratioP1;P1;durP2;ratioP2;P2;SDS_P1;SDS_P2;PMS_P1;PMS_P2;Temp;Humidity;BMP_temperature;BMP_pressure;BME280_temperature;BME280_humidity;BME280_pressure;Samples;Min_cycle;Max_cycle;Signal;HPM_P1;HPM_P2
2021/07/30 00:00:26;;;;;;;4.05;1.80;;;;;;;;;;5025306;28;20087;-73
2021/07/30 00:02:53;;;;;;;4.97;1.90;;;;;;;;;;5024455;28;20076;-74
2021/07/30 00:05:19;;;;;;;6.05;1.85;;;;;;;;;;5023584;28;20499;-74
2021/07/30 00:07:46;;;;;;;5.57;1.90;;;;;;;;;;5022172;28;20076;-73
2021/07/30 00:10:12;;;;;;;4.22;1.83;;;;;;;;;;5025396;28;20847;-73
2021/07/30 00:12:39;;;;;;;6.22;2.30;;;;;;;;;;5022606;28;20065;-74
2021/07/30 00:15:06;;;;;;;5.03;1.80;;;;;;;;;;5023258;28;21429;-74
2021/07/30 00:17:33;;;;;;;8.45;2.10;;;;;;;;;;5024473;28;20386;-74
2021/07/30 00:20:04;;;;;;;4.50;1.95;;;;;;;;;;5024268;28;20053;-75
2021/07/30 00:22:30;;;;;;;4.33;1.60;;;;;;;;;;5026445;28;20049;-75
2021/07/30 00:24:56;;;;;;;3.60;1.80;;;;;;;;;;5024188;28;20069;-74
2021/07/30 00:27:23;;;;;;;4.25;1.58;;;;;;;;;;5025675;28;20510;-74
2021/07/30 00:29:49;;;;;;;5.85;1.60;;;;;;;;;;5054650;28;20064;-76
2021/07/30 00:32:16;;;;;;;4.88;1.80;;;;;;;;;;5020815;28;20065;-74
2021/07/30 00:34:42;;;;;;;5.43;1.73;;;;;;;;;;5022548;28;20458;-74
2021/07/30 00:37:08;;;;;;;4.10;1.77;;;;;;;;;;5023282;28;20452;-74
2021/07/30 00:39:35;;;;;;;5.13;1.83;;;;;;;;;;5023710;28;20066;-74
2021/07/30 00:42:02;;;;;;;4.00;1.90;;;;;;;;;;5023091;28;20582;-74
2021/07/30 00:44:29;;;;;;;5.20;1.60;;;;;;;;;;5023237;28;20496;-74
2021/07/30 00:46:56;;;;;;;3.83;2.17;;;;;;;;;;5022811;28;20065;-74
2021/07/30 00:49:23;;;;;;;3.22;1.65;;;;;;;;;;5023735;28;20053;-73
2021/07/30 00:51:49;;;;;;;5.65;1.92;;;;;;;;;;5024833;28;20065;-74
2021/07/30 00:54:16;;;;;;;6.20;1.70;;;;;;;;;;5024994;28;20567;-74
2021/07/30 00:56:43;;;;;;;4.20;1.63;;;;;;;;;;5022200;28;20053;-74
2021/07/30 00:59:10;;;;;;;4.57;1.73;;;;;;;;;;5025134;28;20053;-74
2021/07/30 01:01:37;;;;;;;4.60;1.90;;;;;;;;;;5054264;28;20077;-74
2021/07/30 01:04:03;;;;;;;6.43;1.98;;;;;;;;;;5021534;28;20088;-73
2021/07/30 01:06:31;;;;;;;5.03;2.15;;;;;;;;;;5022126;28;20492;-74
2021/07/30 01:08:57;;;;;;;4.28;2.00;;;;;;;;;;5019042;28;20475;-74
2021/07/30 01:11:24;;;;;;;4.30;1.83;;;;;;;;;;5024816;28;20069;-74
2021/07/30 01:13:50;;;;;;;5.05;1.88;;;;;;;;;;5052624;28;20839;-74
2021/07/30 01:16:16;;;;;;;5.03;1.73;;;;;;;;;;5023491;28;20075;-75
2021/07/30 01:18:43;;;;;;;7.03;1.92;;;;;;;;;;5022824;28;20524;-74
2021/07/30 01:21:18;;;;;;;4.32;1.42;;;;;;;;;;5025331;28;20130;-74
2021/07/30 01:23:45;;;;;;;4.00;1.88;;;;;;;;;;5021161;28;20065;-74
2021/07/30 01:26:12;;;;;;;4.63;1.73;;;;;;;;;;5023661;28;20534;-75
2021/07/30 01:28:38;;;;;;;2.65;1.50;;;;;;;;;;5024170;28;20186;-73
2021/07/30 01:31:07;;;;;;;3.67;1.50;;;;;;;;;;5022642;28;20703;-75
2021/07/30 01:33:34;;;;;;;4.88;1.60;;;;;;;;;;5023366;28;20551;-73
2021/07/30 01:36:00;;;;;;;4.03;1.85;;;;;;;;;;5020270;28;20079;-74
2021/07/30 01:38:27;;;;;;;6.90;1.88;;;;;;;;;;5023095;28;20111;-73
2021/07/30 01:40:53;;;;;;;4.45;1.50;;;;;;;;;;5022955;28;20057;-74
2021/07/30 01:43:19;;;;;;;3.88;1.60;;;;;;;;;;5022816;28;20065;-74
2021/07/30 01:45:46;;;;;;;4.10;1.40;;;;;;;;;;5021708;28;20065;-74
2021/07/30 01:48:12;;;;;;;4.03;1.60;;;;;;;;;;5018981;28;20122;-74
2021/07/30 01:50:38;;;;;;;4.18;1.50;;;;;;;;;;5022226;28;20037;-74
2021/07/30 01:53:05;;;;;;;5.05;2.05;;;;;;;;;;5022132;28;20061;-74
2021/07/30 01:55:31;;;;;;;7.00;2.05;;;;;;;;;;5020527;28;20068;-74
2021/07/30 01:57:58;;;;;;;5.03;1.75;;;;;;;;;;5022697;28;20073;-74
2021/07/30 02:00:24;;;;;;;3.22;1.58;;;;;;;;;;5023250;28;20450;-76
2021/07/30 02:02:51;;;;;;;3.70;1.48;;;;;;;;;;5019169;28;20099;-76
2021/07/30 02:05:17;;;;;;;3.60;1.60;;;;;;;;;;5021364;28;20442;-76
2021/07/30 02:07:43;;;;;;;2.90;1.50;;;;;;;;;;5023678;28;20057;-75
2021/07/30 02:10:10;;;;;;;3.15;1.90;;;;;;;;;;5022260;28;20037;-75
2021/07/30 02:15:21;;;;;;;2.60;1.30;;;;;;;;;;5018092;28;20503;-79
2021/07/30 02:17:48;;;;;;;4.43;1.40;;;;;;;;;;5019882;28;20077;-75
2021/07/30 02:20:14;;;;;;;4.60;1.70;;;;;;;;;;5022248;28;20065;-75
2021/07/30 02:22:41;;;;;;;3.63;1.40;;;;;;;;;;5021101;28;20465;-75
2021/07/30 02:25:07;;;;;;;3.70;1.35;;;;;;;;;;5021231;28;20110;-75
2021/07/30 02:27:34;;;;;;;7.03;2.10;;;;;;;;;;5022314;28;20065;-75
2021/07/30 02:30:00;;;;;;;4.53;1.90;;;;;;;;;;5020374;28;20057;-75
2021/07/30 02:32:26;;;;;;;6.15;1.90;;;;;;;;;;5022705;28;20146;-75
2021/07/30 02:34:53;;;;;;;5.05;1.63;;;;;;;;;;5050071;28;20092;-73
2021/07/30 02:37:19;;;;;;;4.47;1.83;;;;;;;;;;5020842;28;20049;-74
2021/07/30 02:39:45;;;;;;;3.60;1.55;;;;;;;;;;5020828;28;20065;-74
2021/07/30 02:42:12;;;;;;;3.45;1.60;;;;;;;;;;5021568;28;20072;-78
2021/07/30 02:44:38;;;;;;;5.60;1.90;;;;;;;;;;5019675;28;20515;-74
2021/07/30 02:47:05;;;;;;;4.63;1.63;;;;;;;;;;5036007;28;20041;-74
2021/07/30 02:49:31;;;;;;;3.92;1.95;;;;;;;;;;5021129;28;20072;-76
2021/07/30 02:51:58;;;;;;;4.97;1.80;;;;;;;;;;5019442;28;20084;-75
2021/07/30 02:54:24;;;;;;;3.90;1.75;;;;;;;;;;5052779;28;20064;-74
2021/07/30 02:56:50;;;;;;;2.88;1.50;;;;;;;;;;5019760;28;20065;-74
2021/07/30 02:59:17;;;;;;;4.63;1.42;;;;;;;;;;5022141;28;20495;-74
2021/07/30 03:01:43;;;;;;;3.67;1.75;;;;;;;;;;5021143;28;20067;-74
2021/07/30 03:04:09;;;;;;;5.78;1.77;;;;;;;;;;5021318;28;20079;-74
2021/07/30 03:06:36;;;;;;;4.43;2.00;;;;;;;;;;5021126;28;20092;-74
2021/07/30 03:09:02;;;;;;;3.80;1.50;;;;;;;;;;5021275;28;20064;-74
2021/07/30 03:11:29;;;;;;;7.28;1.65;;;;;;;;;;5020847;28;20712;-74
2021/07/30 03:13:55;;;;;;;4.10;1.65;;;;;;;;;;5019092;28;20073;-74
2021/07/30 03:16:21;;;;;;;4.45;1.70;;;;;;;;;;5021218;28;20075;-74
2021/07/30 03:18:48;;;;;;;4.60;1.60;;;;;;;;;;5020217;28;20077;-74
2021/07/30 03:21:14;;;;;;;4.60;1.70;;;;;;;;;;5021528;28;20061;-75
2021/07/30 03:23:40;;;;;;;3.83;1.63;;;;;;;;;;5021526;28;20065;-75
2021/07/30 03:26:07;;;;;;;6.25;1.77;;;;;;;;;;5019564;28;20068;-74
2021/07/30 03:28:33;;;;;;;4.10;1.70;;;;;;;;;;5018691;28;20753;-75
2021/07/30 03:31:00;;;;;;;2.65;1.70;;;;;;;;;;5020582;28;20061;-75
2021/07/30 03:33:26;;;;;;;5.07;2.13;;;;;;;;;;5020968;28;20103;-75
2021/07/30 03:35:53;;;;;;;3.22;1.98;;;;;;;;;;5020403;28;20065;-75
2021/07/30 03:38:19;;;;;;;4.93;1.73;;;;;;;;;;5020979;28;20747;-75
2021/07/30 03:40:46;;;;;;;4.55;2.00;;;;;;;;;;5019474;28;20076;-75
2021/07/30 03:43:12;;;;;;;3.60;1.58;;;;;;;;;;5020967;28;20677;-74
2021/07/30 03:45:39;;;;;;;3.65;1.70;;;;;;;;;;5022581;28;20064;-75
2021/07/30 03:48:06;;;;;;;3.20;1.90;;;;;;;;;;5024293;28;20061;-74
2021/07/30 03:50:32;;;;;;;5.00;1.80;;;;;;;;;;5025110;28;20064;-74
2021/07/30 03:53:01;;;;;;;5.82;1.92;;;;;;;;;;5025452;28;20088;-75
2021/07/30 03:55:31;;;;;;;3.78;1.70;;;;;;;;;;5056367;28;20057;-75
2021/07/30 03:57:58;;;;;;;4.43;1.77;;;;;;;;;;5022778;28;20057;-74
2021/07/30 04:00:24;;;;;;;3.22;1.58;;;;;;;;;;5026015;28;20065;-74
2021/07/30 04:02:50;;;;;;;3.13;1.52;;;;;;;;;;5023284;28;20126;-74
2021/07/30 04:05:17;;;;;;;5.88;1.65;;;;;;;;;;5025072;28;20073;-75
2021/07/30 04:07:43;;;;;;;4.80;1.80;;;;;;;;;;5024122;28;20053;-74
2021/07/30 04:10:10;;;;;;;5.03;1.70;;;;;;;;;;5023211;28;20061;-75
2021/07/30 04:12:36;;;;;;;4.00;1.48;;;;;;;;;;5025302;28;20068;-74
2021/07/30 04:15:03;;;;;;;2.90;1.80;;;;;;;;;;5024147;28;20502;-75
2021/07/30 04:17:30;;;;;;;4.70;1.67;;;;;;;;;;5024243;28;20446;-73
2021/07/30 04:19:56;;;;;;;3.88;1.60;;;;;;;;;;5023743;28;20061;-75
2021/07/30 04:22:22;;;;;;;5.03;1.52;;;;;;;;;;5021745;28;20060;-75
2021/07/30 04:24:49;;;;;;;3.10;1.50;;;;;;;;;;5024422;28;20053;-74
2021/07/30 04:27:15;;;;;;;2.63;1.38;;;;;;;;;;5024142;28;20769;-74
2021/07/30 04:29:42;;;;;;;4.38;1.55;;;;;;;;;;5024143;28;20069;-74
2021/07/30 04:32:09;;;;;;;2.50;1.58;;;;;;;;;;5022925;28;20080;-74
2021/07/30 04:34:36;;;;;;;3.22;1.67;;;;;;;;;;5054180;28;20069;-74
2021/07/30 04:37:03;;;;;;;2.80;1.50;;;;;;;;;;5021397;28;20068;-75
2021/07/30 04:39:29;;;;;;;3.58;1.35;;;;;;;;;;5024190;28;20069;-76
2021/07/30 04:41:55;;;;;;;4.72;1.58;;;;;;;;;;5024335;28;20587;-75
2021/07/30 04:44:22;;;;;;;3.70;1.52;;;;;;;;;;5024527;28;20069;-74
2021/07/30 04:46:48;;;;;;;4.63;1.95;;;;;;;;;;5053162;28;20060;-74
2021/07/30 04:49:15;;;;;;;5.47;1.80;;;;;;;;;;5023275;28;20069;-73
2021/07/30 04:51:41;;;;;;;4.22;1.77;;;;;;;;;;5021900;28;20061;-75
2021/07/30 04:54:08;;;;;;;6.60;1.90;;;;;;;;;;5024173;28;20515;-73
2021/07/30 04:56:34;;;;;;;4.68;1.48;;;;;;;;;;5021455;28;20064;-73
2021/07/30 04:59:00;;;;;;;3.47;1.38;;;;;;;;;;5021738;28;20076;-74
2021/07/30 05:01:27;;;;;;;3.55;1.55;;;;;;;;;;5023174;28;20132;-74
2021/07/30 05:03:53;;;;;;;3.97;1.67;;;;;;;;;;5023627;28;20053;-74
2021/07/30 05:06:21;;;;;;;4.13;1.80;;;;;;;;;;5023109;28;20073;-72
2021/07/30 05:08:48;;;;;;;3.97;1.55;;;;;;;;;;5022456;28;20084;-73
2021/07/30 05:11:14;;;;;;;6.63;1.90;;;;;;;;;;5021333;28;20473;-72
2021/07/30 05:13:41;;;;;;;4.25;1.92;;;;;;;;;;5020019;28;20065;-73
2021/07/30 05:16:08;;;;;;;4.35;1.60;;;;;;;;;;5020057;28;21259;-73
2021/07/30 05:18:35;;;;;;;3.47;1.83;;;;;;;;;;5021395;28;20101;-76
2021/07/30 05:21:05;;;;;;;12.52;1.85;;;;;;;;;;5021683;28;20517;-75
2021/07/30 05:23:32;;;;;;;8.37;1.70;;;;;;;;;;5022581;28;20107;-75
2021/07/30 05:25:59;;;;;;;3.97;1.30;;;;;;;;;;5022473;28;20126;-77
2021/07/30 05:28:25;;;;;;;4.22;1.65;;;;;;;;;;5021319;28;20577;-75
2021/07/30 05:30:54;;;;;;;7.75;1.88;;;;;;;;;;5021468;28;20068;-75
2021/07/30 05:33:21;;;;;;;4.32;1.98;;;;;;;;;;5022039;28;20063;-75
2021/07/30 05:35:47;;;;;;;4.43;1.83;;;;;;;;;;5022897;28;20061;-75
2021/07/30 05:38:13;;;;;;;5.93;1.92;;;;;;;;;;5022877;28;20092;-76
2021/07/30 05:40:42;;;;;;;3.67;1.80;;;;;;;;;;5021611;28;20049;-75
2021/07/30 05:43:09;;;;;;;3.35;2.13;;;;;;;;;;5021201;28;20065;-74
2021/07/30 05:45:35;;;;;;;4.20;1.88;;;;;;;;;;5019412;28;20511;-73
2021/07/30 05:48:01;;;;;;;6.75;2.03;;;;;;;;;;5021575;28;20076;-74
2021/07/30 05:50:28;;;;;;;5.30;1.90;;;;;;;;;;5022633;28;20060;-73
2021/07/30 05:52:54;;;;;;;6.18;2.08;;;;;;;;;;5021190;28;20084;-74
2021/07/30 05:55:21;;;;;;;5.10;2.00;;;;;;;;;;5022329;28;20053;-74
2021/07/30 05:57:47;;;;;;;6.25;2.30;;;;;;;;;;5022610;28;20497;-72
2021/07/30 06:00:14;;;;;;;3.42;1.95;;;;;;;;;;5022000;28;20065;-74
2021/07/30 06:02:40;;;;;;;4.47;2.05;;;;;;;;;;5024881;28;20088;-74
2021/07/30 06:05:07;;;;;;;4.90;2.25;;;;;;;;;;5022097;28;20490;-74
2021/07/30 06:07:33;;;;;;;7.50;2.40;;;;;;;;;;5022403;28;20057;-75
2021/07/30 06:10:00;;;;;;;6.20;2.47;;;;;;;;;;5022679;28;20064;-74
2021/07/30 06:12:26;;;;;;;5.32;2.22;;;;;;;;;;5022822;28;20134;-74
2021/07/30 06:14:53;;;;;;;5.13;2.15;;;;;;;;;;5021083;28;20548;-74
2021/07/30 06:17:19;;;;;;;5.82;1.92;;;;;;;;;;5023108;28;20083;-75
2021/07/30 06:19:45;;;;;;;5.20;2.17;;;;;;;;;;5021503;28;20126;-75
2021/07/30 06:22:12;;;;;;;5.35;2.22;;;;;;;;;;5022359;28;20065;-75
2021/07/30 06:24:38;;;;;;;4.97;2.20;;;;;;;;;;5023149;28;20233;-75
2021/07/30 06:27:05;;;;;;;5.95;2.03;;;;;;;;;;5021494;28;20745;-74
2021/07/30 06:29:32;;;;;;;5.53;2.45;;;;;;;;;;5022003;28;20512;-72
2021/07/30 06:31:59;;;;;;;5.05;2.38;;;;;;;;;;5021619;28;20064;-71
2021/07/30 06:34:25;;;;;;;5.07;2.15;;;;;;;;;;5020799;28;20453;-72
2021/07/30 06:36:56;;;;;;;5.10;2.60;;;;;;;;;;5018823;28;20064;-72
2021/07/30 06:39:22;;;;;;;5.55;2.13;;;;;;;;;;5020269;28;20115;-72
2021/07/30 06:41:49;;;;;;;8.57;2.67;;;;;;;;;;5017548;28;20718;-71
2021/07/30 06:44:15;;;;;;;5.93;2.05;;;;;;;;;;5021473;28;20080;-71
2021/07/30 06:46:41;;;;;;;5.95;2.10;;;;;;;;;;5020335;28;20123;-75
2021/07/30 06:49:08;;;;;;;7.18;2.22;;;;;;;;;;5019394;28;20068;-72
2021/07/30 06:51:37;;;;;;;12.20;2.30;;;;;;;;;;5021792;28;20068;-74
2021/07/30 06:54:03;;;;;;;8.00;2.60;;;;;;;;;;5019503;28;20049;-75
2021/07/30 06:56:29;;;;;;;7.75;2.33;;;;;;;;;;5019228;28;20053;-76
2021/07/30 06:58:56;;;;;;;5.50;2.25;;;;;;;;;;5019331;28;20057;-76
2021/07/30 07:01:22;;;;;;;5.40;2.35;;;;;;;;;;5018959;28;20053;-76
2021/07/30 07:03:49;;;;;;;3.90;2.10;;;;;;;;;;5021109;28;20052;-76
2021/07/30 07:06:18;;;;;;;6.68;2.15;;;;;;;;;;5021128;28;20061;-77
2021/07/30 07:08:45;;;;;;;4.50;1.90;;;;;;;;;;5020788;28;20526;-77
2021/07/30 07:11:13;;;;;;;5.22;1.85;;;;;;;;;;5020092;28;20069;-76
2021/07/30 07:13:41;;;;;;;10.95;2.33;;;;;;;;;;5019155;28;20068;-80
2021/07/30 07:16:07;;;;;;;6.45;2.38;;;;;;;;;;5051802;28;20083;-76
2021/07/30 07:18:34;;;;;;;7.32;2.28;;;;;;;;;;5020466;28;20755;-76
2021/07/30 07:21:00;;;;;;;3.70;2.05;;;;;;;;;;5019907;28;20118;-77
2021/07/30 07:23:27;;;;;;;5.63;2.40;;;;;;;;;;5025854;28;20064;-76
2021/07/30 07:25:53;;;;;;;6.13;1.90;;;;;;;;;;5022268;28;20053;-77
2021/07/30 07:28:20;;;;;;;5.32;2.13;;;;;;;;;;5025184;28;20072;-77
2021/07/30 07:30:47;;;;;;;6.38;2.60;;;;;;;;;;5024022;28;20057;-77
2021/07/30 07:33:14;;;;;;;5.45;1.98;;;;;;;;;;5026005;28;20076;-77
2021/07/30 07:35:40;;;;;;;4.78;2.17;;;;;;;;;;5024631;28;20099;-75
2021/07/30 07:38:07;;;;;;;5.65;2.22;;;;;;;;;;5021503;28;20056;-77
2021/07/30 07:40:33;;;;;;;5.38;2.10;;;;;;;;;;5048943;28;20061;-77
2021/07/30 07:43:02;;;;;;;3.95;2.30;;;;;;;;;;5024632;28;20108;-77
2021/07/30 07:45:31;;;;;;;4.68;2.00;;;;;;;;;;5024641;28;20524;-77
2021/07/30 07:47:57;;;;;;;4.95;1.92;;;;;;;;;;5023727;28;20135;-77
2021/07/30 07:50:24;;;;;;;4.53;2.00;;;;;;;;;;5026162;28;20064;-77
2021/07/30 07:52:50;;;;;;;5.35;2.30;;;;;;;;;;5021405;28;20081;-78
2021/07/30 07:55:17;;;;;;;4.45;2.10;;;;;;;;;;5024113;28;20510;-76
2021/07/30 07:57:43;;;;;;;4.88;1.90;;;;;;;;;;5023541;28;20072;-75
2021/07/30 08:00:10;;;;;;;8.30;2.60;;;;;;;;;;5024354;28;20045;-76
2021/07/30 08:02:37;;;;;;;4.65;1.90;;;;;;;;;;5024588;28;20504;-74
2021/07/30 08:05:03;;;;;;;3.75;2.05;;;;;;;;;;5022345;28;20049;-74
2021/07/30 08:07:30;;;;;;;5.82;2.20;;;;;;;;;;5023592;28;20111;-76
2021/07/30 08:09:56;;;;;;;7.40;2.03;;;;;;;;;;5022534;28;20060;-74
2021/07/30 08:12:22;;;;;;;2.92;1.52;;;;;;;;;;5024338;28;20302;-74
2021/07/30 08:14:49;;;;;;;4.38;2.08;;;;;;;;;;5024831;28;20053;-75
2021/07/30 08:17:15;;;;;;;5.07;2.13;;;;;;;;;;5024960;28;20513;-75
2021/07/30 08:19:42;;;;;;;3.72;1.80;;;;;;;;;;5023439;28;20073;-76
2021/07/30 08:22:08;;;;;;;3.95;2.08;;;;;;;;;;5021757;28;21410;-75
2021/07/30 08:24:35;;;;;;;5.20;2.08;;;;;;;;;;5024526;28;20037;-76
2021/07/30 08:27:05;;;;;;;7.07;2.20;;;;;;;;;;5022811;28;20069;-76
2021/07/30 08:29:32;;;;;;;4.38;2.28;;;;;;;;;;5056658;28;20077;-76
2021/07/30 08:31:59;;;;;;;6.18;1.80;;;;;;;;;;5024325;28;20077;-76
2021/07/30 08:34:25;;;;;;;6.15;1.88;;;;;;;;;;5054925;28;20483;-75
2021/07/30 08:36:52;;;;;;;5.60;1.70;;;;;;;;;;5023545;28;20261;-76
2021/07/30 08:39:19;;;;;;;4.95;2.10;;;;;;;;;;5024829;28;20294;-74
2021/07/30 08:41:46;;;;;;;4.20;2.13;;;;;;;;;;5014858;28;20053;-74
2021/07/30 08:44:14;;;;;;;5.00;1.98;;;;;;;;;;5023945;28;20057;-76
2021/07/30 08:46:41;;;;;;;5.07;1.92;;;;;;;;;;5024552;28;20123;-76
2021/07/30 08:49:09;;;;;;;4.65;2.00;;;;;;;;;;5023887;28;20126;-76
2021/07/30 08:51:36;;;;;;;7.45;1.95;;;;;;;;;;5024737;28;20067;-76
2021/07/30 08:54:03;;;;;;;3.08;1.77;;;;;;;;;;5054892;28;20069;-76
2021/07/30 08:56:29;;;;;;;3.45;1.70;;;;;;;;;;5024309;28;20086;-74
2021/07/30 08:58:56;;;;;;;4.10;1.70;;;;;;;;;;5022494;28;20057;-75
2021/07/30 09:01:22;;;;;;;8.18;2.10;;;;;;;;;;5022916;28;20057;-75
2021/07/30 09:03:48;;;;;;;4.32;1.80;;;;;;;;;;5022444;28;20065;-75
2021/07/30 09:06:22;;;;;;;3.28;1.92;;;;;;;;;;5021060;28;20484;-75
2021/07/30 09:08:54;;;;;;;4.43;1.90;;;;;;;;;;5038161;28;20119;-76
2021/07/30 09:11:37;;;;;;;4.40;1.80;;;;;;;;;;5023117;28;20061;-76
2021/07/30 09:14:05;;;;;;;6.25;2.30;;;;;;;;;;5023526;28;20505;-75
2021/07/30 09:16:46;;;;;;;4.15;1.88;;;;;;;;;;5023051;28;20053;-75
2021/07/30 09:19:12;;;;;;;5.03;2.08;;;;;;;;;;5021300;28;22317;-74
2021/07/30 09:21:39;;;;;;;4.85;2.20;;;;;;;;;;5023776;28;20065;-75
2021/07/30 09:24:06;;;;;;;4.13;2.10;;;;;;;;;;5020373;28;20061;-75
2021/07/30 09:26:35;;;;;;;4.15;1.75;;;;;;;;;;5022844;28;20796;-74
2021/07/30 09:29:04;;;;;;;6.50;2.15;;;;;;;;;;5022168;28;20134;-75
2021/07/30 09:31:42;;;;;;;4.50;2.20;;;;;;;;;;5022313;28;20065;-74
2021/07/30 09:34:17;;;;;;;4.18;1.77;;;;;;;;;;5021085;28;20053;-75
2021/07/30 09:36:53;;;;;;;4.57;1.98;;;;;;;;;;5023152;28;20068;-76
2021/07/30 09:39:24;;;;;;;3.80;1.95;;;;;;;;;;5023280;28;20053;-75
2021/07/30 09:42:00;;;;;;;4.05;1.88;;;;;;;;;;5022600;28;20065;-75
2021/07/30 09:44:28;;;;;;;4.22;1.90;;;;;;;;;;5020794;28;20053;-75
2021/07/30 09:47:04;;;;;;;3.47;1.90;;;;;;;;;;5018834;28;20095;-76
2021/07/30 09:49:37;;;;;;;3.65;2.05;;;;;;;;;;5023709;28;20504;-75
2021/07/30 09:52:03;;;;;;;4.43;2.08;;;;;;;;;;5022668;28;20069;-76
2021/07/30 09:54:32;;;;;;;3.50;2.00;;;;;;;;;;5024659;28;20119;-76
2021/07/30 09:56:59;;;;;;;4.05;2.00;;;;;;;;;;5020930;28;20088;-75
2021/07/30 09:59:27;;;;;;;3.83;1.90;;;;;;;;;;5022970;28;20134;-75
2021/07/30 10:01:53;;;;;;;4.03;2.08;;;;;;;;;;5022540;28;20059;-75
2021/07/30 10:04:23;;;;;;;3.97;1.98;;;;;;;;;;5021700;28;20061;-75
2021/07/30 10:06:49;;;;;;;3.85;1.90;;;;;;;;;;5019716;28;20656;-78
2021/07/30 10:09:17;;;;;;;4.88;1.83;;;;;;;;;;5021478;28;20174;-76
2021/07/30 10:11:44;;;;;;;4.03;2.15;;;;;;;;;;5021357;28;20095;-76
2021/07/30 10:14:12;;;;;;;4.15;2.10;;;;;;;;;;5022596;28;20057;-76
2021/07/30 10:16:49;;;;;;;5.20;2.00;;;;;;;;;;5021989;28;20053;-75
2021/07/30 10:19:17;;;;;;;3.30;1.80;;;;;;;;;;5020389;28;20461;-76
2021/07/30 10:21:43;;;;;;;3.47;1.98;;;;;;;;;;5021304;28;20151;-76
2021/07/30 10:24:12;;;;;;;6.00;1.92;;;;;;;;;;5021356;28;20049;-76
2021/07/30 10:26:40;;;;;;;4.18;1.70;;;;;;;;;;5020965;28;20041;-76
2021/07/30 10:29:09;;;;;;;6.03;2.05;;;;;;;;;;5020903;28;20065;-76
2021/07/30 10:31:48;;;;;;;4.43;1.83;;;;;;;;;;5021997;28;20509;-76
2021/07/30 10:34:15;;;;;;;5.55;1.98;;;;;;;;;;5020231;28;20705;-76
2021/07/30 10:36:42;;;;;;;4.57;1.85;;;;;;;;;;5021847;28;20060;-76
2021/07/30 10:39:11;;;;;;;4.30;1.65;;;;;;;;;;5018993;28;20123;-76
2021/07/30 10:41:41;;;;;;;6.13;1.90;;;;;;;;;;5020508;28;20574;-76
2021/07/30 10:44:08;;;;;;;5.18;1.92;;;;;;;;;;5020479;28;20081;-75
2021/07/30 10:46:35;;;;;;;3.70;1.70;;;;;;;;;;5017029;28;20498;-76
2021/07/30 10:49:01;;;;;;;4.10;1.80;;;;;;;;;;5020176;28;20837;-75
2021/07/30 10:51:28;;;;;;;5.80;1.92;;;;;;;;;;5021464;28;20061;-76
2021/07/30 10:53:55;;;;;;;3.88;1.80;;;;;;;;;;5019777;28;20076;-76
2021/07/30 10:56:21;;;;;;;4.57;2.13;;;;;;;;;;5020499;28;20143;-77
2021/07/30 10:58:52;;;;;;;4.28;1.90;;;;;;;;;;5020692;28;20061;-76
2021/07/30 11:01:23;;;;;;;4.55;2.10;;;;;;;;;;5051941;28;20092;-77
2021/07/30 11:03:49;;;;;;;3.83;1.83;;;;;;;;;;5020415;28;20071;-77
2021/07/30 11:06:16;;;;;;;3.38;1.75;;;;;;;;;;5021919;28;20053;-76
2021/07/30 11:09:04;;;;;;;4.40;1.75;;;;;;;;;;5020855;28;20057;-78
2021/07/30 11:11:36;;;;;;;3.05;1.70;;;;;;;;;;5020703;28;20111;-76
2021/07/30 11:14:15;;;;;;;3.83;1.83;;;;;;;;;;5019672;28;20106;-76
2021/07/30 11:16:42;;;;;;;6.05;1.80;;;;;;;;;;5021828;28;20069;-77
2021/07/30 11:19:09;;;;;;;7.90;1.88;;;;;;;;;;5018852;28;20068;-77
2021/07/30 11:21:35;;;;;;;4.60;1.77;;;;;;;;;;5020638;28;20057;-77
2021/07/30 11:24:02;;;;;;;4.28;1.75;;;;;;;;;;5019088;28;20068;-77
2021/07/30 11:26:29;;;;;;;6.43;2.05;;;;;;;;;;5021899;28;20057;-76
2021/07/30 11:28:56;;;;;;;3.30;1.73;;;;;;;;;;5021540;28;20065;-76
2021/07/30 11:31:23;;;;;;;4.78;1.85;;;;;;;;;;5020932;28;20053;-76
2021/07/30 11:33:50;;;;;;;4.93;1.70;;;;;;;;;;5020852;28;20516;-76
2021/07/30 11:36:17;;;;;;;4.43;2.10;;;;;;;;;;5021890;28;20122;-76
2021/07/30 11:38:56;;;;;;;2.67;1.58;;;;;;;;;;5021569;28;20057;-76
2021/07/30 11:41:23;;;;;;;3.13;1.80;;;;;;;;;;5020928;28;22457;-76
2021/07/30 11:44:02;;;;;;;4.45;1.73;;;;;;;;;;5020018;28;20064;-76
2021/07/30 11:46:29;;;;;;;3.42;1.70;;;;;;;;;;5020352;28;20103;-73
2021/07/30 11:48:56;;;;;;;5.28;1.88;;;;;;;;;;5020424;28;20405;-78
2021/07/30 11:51:23;;;;;;;3.67;1.60;;;;;;;;;;5018101;28;20059;-77
2021/07/30 11:53:50;;;;;;;6.55;1.90;;;;;;;;;;5017683;28;20574;-78
2021/07/30 11:56:17;;;;;;;4.97;1.92;;;;;;;;;;5020432;28;20112;-78
2021/07/30 11:58:56;;;;;;;4.22;1.88;;;;;;;;;;5019274;28;20060;-78
2021/07/30 12:01:22;;;;;;;4.10;2.03;;;;;;;;;;5020328;28;20069;-79
2021/07/30 12:04:08;;;;;;;4.72;2.03;;;;;;;;;;5019825;28;20458;-78
2021/07/30 12:06:42;;;;;;;4.47;1.85;;;;;;;;;;5051790;28;20076;-77
2021/07/30 12:09:09;;;;;;;4.10;2.00;;;;;;;;;;5022925;28;20077;-78
2021/07/30 12:11:37;;;;;;;4.22;1.60;;;;;;;;;;5022336;28;20135;-79
2021/07/30 12:14:05;;;;;;;4.95;1.70;;;;;;;;;;5023060;28;20099;-79
2021/07/30 12:16:32;;;;;;;6.10;1.80;;;;;;;;;;5024721;28;20068;-79
2021/07/30 12:18:58;;;;;;;5.13;1.77;;;;;;;;;;5027587;28;20114;-81
2021/07/30 12:21:25;;;;;;;5.65;2.10;;;;;;;;;;5023191;28;20258;-76
2021/07/30 12:23:51;;;;;;;5.38;1.90;;;;;;;;;;5023083;28;20792;-79
2021/07/30 12:26:34;;;;;;;5.82;2.00;;;;;;;;;;5024627;28;20084;-78
2021/07/30 12:29:00;;;;;;;4.55;1.95;;;;;;;;;;5023346;28;20503;-78
2021/07/30 12:31:27;;;;;;;4.45;1.90;;;;;;;;;;5024318;28;20110;-77
2021/07/30 12:34:16;;;;;;;4.85;1.80;;;;;;;;;;5021764;28;20073;-80
2021/07/30 12:36:42;;;;;;;3.05;1.70;;;;;;;;;;5026121;28;20057;-77
2021/07/30 12:39:09;;;;;;;8.52;1.77;;;;;;;;;;5022634;28;20041;-76
2021/07/30 12:41:36;;;;;;;3.55;1.88;;;;;;;;;;5024403;28;20122;-76
2021/07/30 12:44:16;;;;;;;7.88;2.00;;;;;;;;;;5023969;28;20069;-75
2021/07/30 12:46:43;;;;;;;5.25;1.85;;;;;;;;;;5023156;28;20049;-75
2021/07/30 12:49:11;;;;;;;7.03;2.22;;;;;;;;;;5019639;28;21386;-80
2021/07/30 12:51:38;;;;;;;5.40;1.92;;;;;;;;;;5024328;28;20057;-75
2021/07/30 12:54:07;;;;;;;6.53;2.00;;;;;;;;;;5023150;28;20458;-74
2021/07/30 12:56:52;;;;;;;5.43;1.60;;;;;;;;;;5023120;28;20057;-74
2021/07/30 12:59:19;;;;;;;3.90;1.50;;;;;;;;;;5022721;28;20155;-74
2021/07/30 13:01:45;;;;;;;3.85;1.50;;;;;;;;;;5023415;28;20057;-74
2021/07/30 13:04:13;;;;;;;5.20;1.70;;;;;;;;;;5021506;28;20061;-74
2021/07/30 13:06:39;;;;;;;5.07;1.60;;;;;;;;;;5021483;28;20099;-73
2021/07/30 13:09:06;;;;;;;4.55;1.83;;;;;;;;;;5053624;28;20061;-74
2021/07/30 13:11:32;;;;;;;4.75;1.60;;;;;;;;;;5022652;28;20121;-74
2021/07/30 13:13:59;;;;;;;5.15;1.80;;;;;;;;;;5023466;28;20087;-74
2021/07/30 13:16:25;;;;;;;7.72;2.28;;;;;;;;;;5022468;28;20061;-75
2021/07/30 13:18:51;;;;;;;5.53;1.75;;;;;;;;;;5019010;28;20073;-75
2021/07/30 13:21:18;;;;;;;4.03;1.50;;;;;;;;;;5022952;28;20075;-75
2021/07/30 13:23:44;;;;;;;4.15;1.92;;;;;;;;;;5021330;28;20728;-76
2021/07/30 13:26:11;;;;;;;2.67;1.50;;;;;;;;;;5022329;28;20072;-76
2021/07/30 13:28:37;;;;;;;5.07;1.67;;;;;;;;;;5022790;28;20064;-75
2021/07/30 13:31:03;;;;;;;5.32;2.20;;;;;;;;;;5020967;28;21779;-75
2021/07/30 13:33:30;;;;;;;3.40;2.05;;;;;;;;;;5023763;28;20461;-74
2021/07/30 13:35:56;;;;;;;4.85;1.92;;;;;;;;;;5020226;28;20065;-75
2021/07/30 13:38:23;;;;;;;4.10;1.70;;;;;;;;;;5022883;28;20053;-75
2021/07/30 13:40:50;;;;;;;4.25;1.95;;;;;;;;;;5021892;28;20317;-74
2021/07/30 13:43:16;;;;;;;4.97;1.83;;;;;;;;;;5030020;28;20132;-76
2021/07/30 13:45:44;;;;;;;5.30;1.83;;;;;;;;;;5027177;28;20061;-73
2021/07/30 13:48:10;;;;;;;5.80;2.50;;;;;;;;;;5060785;28;22378;-77
2021/07/30 13:50:37;;;;;;;5.22;1.75;;;;;;;;;;5032620;28;20037;-78
2021/07/30 13:53:04;;;;;;;7.03;2.22;;;;;;;;;;5025638;28;20090;-80
2021/07/30 13:55:30;;;;;;;4.78;1.75;;;;;;;;;;5059692;28;20501;-83
2021/07/30 13:57:57;;;;;;;5.03;2.03;;;;;;;;;;5030644;28;20065;-80
2021/07/30 14:00:23;;;;;;;4.00;1.63;;;;;;;;;;5030740;28;20037;-76
2021/07/30 14:02:49;;;;;;;4.65;1.88;;;;;;;;;;5025827;28;20034;-77
2021/07/30 14:05:16;;;;;;;7.60;1.92;;;;;;;;;;5031421;28;20046;-75
2021/07/30 14:07:43;;;;;;;4.53;1.95;;;;;;;;;;5032645;28;20095;-79
2021/07/30 14:10:11;;;;;;;5.03;1.95;;;;;;;;;;5031225;28;20506;-78
2021/07/30 14:12:38;;;;;;;2.95;1.50;;;;;;;;;;5029040;28;20749;-76
2021/07/30 14:15:12;;;;;;;3.80;1.60;;;;;;;;;;5021240;28;20073;-76
2021/07/30 14:17:38;;;;;;;4.88;1.95;;;;;;;;;;5023869;28;20049;-79
2021/07/30 14:20:08;;;;;;;3.28;1.55;;;;;;;;;;5031961;28;20053;-77
2021/07/30 14:22:35;;;;;;;3.73;1.63;;;;;;;;;;5028014;28;20033;-77
2021/07/30 14:25:01;;;;;;;4.95;1.98;;;;;;;;;;5028762;28;20042;-76
2021/07/30 14:27:28;;;;;;;2.83;1.50;;;;;;;;;;5028564;28;20559;-76
2021/07/30 14:29:55;;;;;;;3.42;1.60;;;;;;;;;;5028366;28;20091;-80
2021/07/30 14:32:21;;;;;;;3.45;1.60;;;;;;;;;;5028428;28;20072;-76
2021/07/30 14:34:47;;;;;;;3.83;1.88;;;;;;;;;;5028121;28;20056;-79
2021/07/30 14:37:14;;;;;;;5.05;1.83;;;;;;;;;;5030773;28;20033;-75
2021/07/30 14:39:40;;;;;;;3.75;1.92;;;;;;;;;;5029046;28;20040;-76
2021/07/30 14:42:10;;;;;;;2.85;1.60;;;;;;;;;;5028711;28;20073;-77
2021/07/30 14:44:38;;;;;;;3.80;1.83;;;;;;;;;;5022786;28;20030;-81
2021/07/30 14:47:05;;;;;;;7.15;2.17;;;;;;;;;;5029669;28;20120;-77